Time;durP1;ratioP1;P1;durP2;ratioP2;P2;SDS_P1;SDS_P2;PMS_P1;PMS_P2;Temp;Humidity;BMP_temperature;BMP_pressure;BME280_temperature;BME280_humidity;BME280_pressure;Samples;Min_cycle;Max_cycle;Signal;HPM_P1;HPM_P2
2022/04/01 00:01:42;;;;;;;3.45;1.75;;;;;;;;;;6296058;22;20069;-91
2022/04/01 00:04:11;;;;;;;3.25;1.92;;;;;;;;;;6296109;22;20017;-91
2022/04/01 00:06:40;;;;;;;1.65;0.80;;;;;;;;;;6295151;22;20432;-91
2022/04/01 00:09:06;;;;;;;1.63;1.40;;;;;;;;;;6295491;22;20415;-91
2022/04/01 00:11:32;;;;;;;1.55;0.90;;;;;;;;;;6294982;22;20148;-91
2022/04/01 00:13:59;;;;;;;2.30;1.27;;;;;;;;;;6321555;22;20015;-91
2022/04/01 00:16:32;;;;;;;3.72;1.80;;;;;;;;;;6266474;22;20027;-92
2022/04/01 00:18:58;;;;;;;5.97;1.80;;;;;;;;;;6264442;22;20027;-91
2022/04/01 00:21:27;;;;;;;6.03;1.30;;;;;;;;;;6264315;22;20012;-92
2022/04/01 00:23:53;;;;;;;2.20;1.38;;;;;;;;;;6264700;22;20011;-91
2022/04/01 00:26:19;;;;;;;3.35;2.20;;;;;;;;;;6264914;22;20063;-92
2022/04/01 00:28:45;;;;;;;2.53;1.67;;;;;;;;;;6264970;22;20019;-91
2022/04/01 00:31:12;;;;;;;2.00;1.00;;;;;;;;;;6265001;22;20058;-91
2022/04/01 00:33:38;;;;;;;2.03;1.27;;;;;;;;;;6264587;22;20019;-92
2022/04/01 00:36:05;;;;;;;4.43;1.75;;;;;;;;;;6265618;22;20019;-92
2022/04/01 00:38:31;;;;;;;2.22;1.38;;;;;;;;;;6264429;22;20026;-92
2022/04/01 00:40:59;;;;;;;3.42;1.45;;;;;;;;;;6263988;22;20100;-93
2022/04/01 00:43:34;;;;;;;6.10;2.58;;;;;;;;;;6266983;22;20332;-92
2022/04/01 00:46:01;;;;;;;4.28;1.23;;;;;;;;;;6266246;22;20015;-93
2022/04/01 00:48:27;;;;;;;4.65;1.77;;;;;;;;;;6267002;22;20066;-92
2022/04/01 00:50:54;;;;;;;3.92;1.00;;;;;;;;;;6292704;22;20019;-91
2022/04/01 00:53:22;;;;;;;1.67;0.88;;;;;;;;;;6267547;22;20012;-92
2022/04/01 00:55:48;;;;;;;3.22;1.60;;;;;;;;;;6267254;22;20014;-91
2022/04/01 00:58:21;;;;;;;3.42;1.27;;;;;;;;;;6293796;22;20011;-92
2022/04/01 01:00:47;;;;;;;1.98;1.20;;;;;;;;;;6266314;22;20065;-92
2022/04/01 01:03:13;;;;;;;3.90;1.88;;;;;;;;;;6267011;22;20063;-91
2022/04/01 01:05:43;;;;;;;4.28;1.83;;;;;;;;;;6267626;22;20011;-92
2022/04/01 01:08:13;;;;;;;6.60;2.28;;;;;;;;;;6266697;22;20011;-92
2022/04/01 01:10:41;;;;;;;4.47;2.15;;;;;;;;;;6267351;22;20015;-92
2022/04/01 01:13:07;;;;;;;3.30;1.55;;;;;;;;;;6267647;22;20019;-92
2022/04/01 01:15:37;;;;;;;2.60;1.50;;;;;;;;;;6267170;22;20038;-90
2022/04/01 01:18:05;;;;;;;3.40;1.67;;;;;;;;;;6267452;22;20037;-92
2022/04/01 01:20:31;;;;;;;5.25;1.95;;;;;;;;;;6267451;22;20730;-93
2022/04/01 01:22:59;;;;;;;6.07;2.30;;;;;;;;;;6267623;22;20008;-91
2022/04/01 01:25:28;;;;;;;2.35;1.38;;;;;;;;;;6267825;22;20089;-91
2022/04/01 01:27:55;;;;;;;2.80;1.50;;;;;;;;;;6268755;22;20015;-90
2022/04/01 01:30:24;;;;;;;3.97;2.08;;;;;;;;;;6267975;22;20023;-92
2022/04/01 01:32:50;;;;;;;0.73;0.60;;;;;;;;;;6267091;22;20050;-91
2022/04/01 01:35:16;;;;;;;6.07;2.65;;;;;;;;;;6268002;22;20034;-92
2022/04/01 01:37:43;;;;;;;1.83;1.23;;;;;;;;;;6267202;22;20073;-91
2022/04/01 01:40:09;;;;;;;4.60;1.75;;;;;;;;;;6266997;22;20015;-92
2022/04/01 01:42:35;;;;;;;2.78;1.88;;;;;;;;;;6267159;22;20015;-90
2022/04/01 01:45:01;;;;;;;2.78;1.40;;;;;;;;;;6267308;22;20110;-91
2022/04/01 01:47:28;;;;;;;1.48;1.10;;;;;;;;;;6268278;22;20051;-92
2022/04/01 01:55:44;;;;;;;2.90;1.42;;;;;;;;;;6286314;22;20043;-92
2022/04/01 01:58:14;;;;;;;2.35;1.30;;;;;;;;;;6268788;22;20034;-92
2022/04/01 02:00:40;;;;;;;3.00;1.58;;;;;;;;;;6267352;22;20018;-92
2022/04/01 02:03:06;;;;;;;2.47;1.45;;;;;;;;;;6266812;22;20016;-92
2022/04/01 02:05:35;;;;;;;3.05;1.83;;;;;;;;;;6266708;22;20007;-91
2022/04/01 02:08:02;;;;;;;2.25;1.27;;;;;;;;;;6266205;22;20039;-92
2022/04/01 02:10:31;;;;;;;3.50;1.27;;;;;;;;;;6266582;22;20019;-91
2022/04/01 02:12:59;;;;;;;3.60;1.80;;;;;;;;;;6266410;22;20027;-91
2022/04/01 02:15:26;;;;;;;1.95;0.95;;;;;;;;;;6265743;22;20037;-92
2022/04/01 02:17:52;;;;;;;0.90;0.80;;;;;;;;;;6266358;22;20386;-91
2022/04/01 02:20:18;;;;;;;2.85;1.17;;;;;;;;;;6266777;22;20011;-91
2022/04/01 02:22:45;;;;;;;2.58;1.75;;;;;;;;;;6266280;22;20015;-92
2022/04/01 02:25:11;;;;;;;2.40;1.38;;;;;;;;;;6266599;22;20037;-90
2022/04/01 02:27:42;;;;;;;1.70;1.15;;;;;;;;;;6266364;22;20067;-90
2022/04/01 02:30:12;;;;;;;2.25;1.50;;;;;;;;;;6266329;22;20016;-91
2022/04/01 02:32:42;;;;;;;3.45;1.27;;;;;;;;;;6267039;22;20014;-91
2022/04/01 02:35:09;;;;;;;4.00;1.27;;;;;;;;;;6265892;22;20015;-90
2022/04/01 02:37:35;;;;;;;1.15;0.93;;;;;;;;;;6265888;22;20025;-92
2022/04/01 02:40:02;;;;;;;1.45;0.93;;;;;;;;;;6266284;22;20090;-92
2022/04/01 02:42:33;;;;;;;2.97;1.92;;;;;;;;;;6266829;22;20015;-92
2022/04/01 02:45:02;;;;;;;3.78;1.60;;;;;;;;;;6265927;22;20018;-92
2022/04/01 02:47:30;;;;;;;2.50;1.40;;;;;;;;;;6264730;22;20016;-92
2022/04/01 02:49:56;;;;;;;2.10;1.23;;;;;;;;;;6265473;22;20015;-92
2022/04/01 02:52:23;;;;;;;2.50;1.40;;;;;;;;;;6266395;22;20324;-91
2022/04/01 02:54:49;;;;;;;1.35;1.00;;;;;;;;;;6267017;22;20069;-92
2022/04/01 02:57:15;;;;;;;4.68;1.90;;;;;;;;;;6266381;22;20356;-92
2022/04/01 02:59:41;;;;;;;3.00;1.67;;;;;;;;;;6267743;22;20019;-92
2022/04/01 03:02:09;;;;;;;1.77;0.95;;;;;;;;;;6242348;22;20011;-91
2022/04/01 03:04:42;;;;;;;3.83;2.15;;;;;;;;;;6266638;22;20007;-92
2022/04/01 03:07:09;;;;;;;1.65;0.85;;;;;;;;;;6265721;22;20022;-91
2022/04/01 03:09:35;;;;;;;2.83;1.27;;;;;;;;;;6266097;22;20019;-91
2022/04/01 03:12:01;;;;;;;3.08;1.20;;;;;;;;;;6265823;22;20029;-91
2022/04/01 03:14:27;;;;;;;1.38;0.98;;;;;;;;;;6266372;22;20094;-90
2022/04/01 03:16:54;;;;;;;1.73;1.25;;;;;;;;;;6266333;22;20344;-92
2022/04/01 03:19:20;;;;;;;1.15;0.85;;;;;;;;;;6290860;22;20015;-92
2022/04/01 03:21:47;;;;;;;1.85;1.30;;;;;;;;;;6290621;22;20098;-93
2022/04/01 03:24:14;;;;;;;1.52;1.05;;;;;;;;;;6266110;22;20332;-92
2022/04/01 03:26:43;;;;;;;3.25;1.77;;;;;;;;;;6241609;22;20015;-92
2022/04/01 03:29:12;;;;;;;1.63;1.20;;;;;;;;;;6266896;22;20019;-92
2022/04/01 03:31:38;;;;;;;3.38;1.58;;;;;;;;;;6265709;22;20050;-92
2022/04/01 03:34:07;;;;;;;3.88;2.03;;;;;;;;;;6266624;22;20089;-92
2022/04/01 03:36:34;;;;;;;6.13;1.67;;;;;;;;;;6265854;22;20011;-92
2022/04/01 03:39:03;;;;;;;2.17;1.50;;;;;;;;;;6265925;22;20023;-92
2022/04/01 03:41:34;;;;;;;1.52;0.80;;;;;;;;;;6266639;22;20101;-93
2022/04/01 03:44:03;;;;;;;1.10;0.95;;;;;;;;;;6266553;22;20011;-91
2022/04/01 03:46:48;;;;;;;1.48;0.93;;;;;;;;;;6265631;22;20015;-93
2022/04/01 03:49:17;;;;;;;2.40;0.95;;;;;;;;;;6266076;22;20044;-92
2022/04/01 03:51:49;;;;;;;4.93;1.20;;;;;;;;;;6266548;22;20046;-93
2022/04/01 03:54:20;;;;;;;1.65;1.20;;;;;;;;;;6266830;22;20011;-93
2022/04/01 03:56:54;;;;;;;3.42;1.55;;;;;;;;;;6265293;22;20071;-92
2022/04/01 03:59:21;;;;;;;7.18;3.20;;;;;;;;;;6265162;22;20011;-93
2022/04/01 04:01:53;;;;;;;4.38;1.67;;;;;;;;;;6266176;22;20065;-93
2022/04/01 04:04:20;;;;;;;2.55;1.63;;;;;;;;;;6264969;22;20011;-92
2022/04/01 04:06:51;;;;;;;5.82;1.48;;;;;;;;;;6267271;22;20060;-92
2022/04/01 04:09:18;;;;;;;1.15;0.90;;;;;;;;;;6265929;22;20018;-92
2022/04/01 04:11:44;;;;;;;2.00;1.02;;;;;;;;;;6266254;22;20011;-92
2022/04/01 04:14:10;;;;;;;1.92;0.90;;;;;;;;;;6266312;22;20026;-93
2022/04/01 04:16:44;;;;;;;2.42;1.10;;;;;;;;;;6266580;22;20015;-92
2022/04/01 04:19:16;;;;;;;1.52;1.23;;;;;;;;;;6267995;22;20022;-92
2022/04/01 04:22:01;;;;;;;1.17;0.82;;;;;;;;;;6268482;22;20098;-93
2022/04/01 04:24:36;;;;;;;3.92;1.65;;;;;;;;;;6267710;22;20015;-91
2022/04/01 04:27:10;;;;;;;10.32;1.58;;;;;;;;;;6268379;22;20019;-92
2022/04/01 04:29:48;;;;;;;5.38;1.45;;;;;;;;;;6267683;22;20023;-92
2022/04/01 04:32:24;;;;;;;2.67;1.00;;;;;;;;;;6292909;22;20015;-93
2022/04/01 04:34:50;;;;;;;2.33;0.93;;;;;;;;;;6268119;22;20030;-91
2022/04/01 04:37:22;;;;;;;3.78;1.67;;;;;;;;;;6268720;22;20030;-93
2022/04/01 04:39:56;;;;;;;1.23;0.97;;;;;;;;;;6268964;22;20055;-93
2022/04/01 04:42:26;;;;;;;0.50;0.50;;;;;;;;;;6268660;22;20460;-92
2022/04/01 04:44:53;;;;;;;2.80;1.00;;;;;;;;;;6268431;22;20097;-93
2022/04/01 04:47:26;;;;;;;2.15;1.10;;;;;;;;;;6270215;22;20071;-92
2022/04/01 04:49:53;;;;;;;3.15;1.10;;;;;;;;;;6268503;22;20019;-93
2022/04/01 04:52:26;;;;;;;5.82;1.75;;;;;;;;;;6296920;22;20053;-92
2022/04/01 04:54:53;;;;;;;0.57;0.50;;;;;;;;;;6269801;22;20023;-92
2022/04/01 04:57:20;;;;;;;6.22;1.23;;;;;;;;;;6271396;22;20022;-93
2022/04/01 04:59:48;;;;;;;2.42;1.23;;;;;;;;;;6270153;22;20035;-93
2022/04/01 05:02:26;;;;;;;8.57;2.85;;;;;;;;;;6270770;22;20034;-93
2022/04/01 05:05:02;;;;;;;0.77;0.63;;;;;;;;;;6270465;22;20015;-93
2022/04/01 05:07:45;;;;;;;4.40;1.13;;;;;;;;;;6270492;22;20015;-93
2022/04/01 05:10:24;;;;;;;2.72;1.30;;;;;;;;;;6271083;22;20099;-93
2022/04/01 05:13:13;;;;;;;0.98;0.73;;;;;;;;;;6270365;22;20359;-93
2022/04/01 05:15:41;;;;;;;5.43;1.42;;;;;;;;;;6296208;22;20015;-93
2022/04/01 05:18:08;;;;;;;3.05;0.80;;;;;;;;;;6270849;22;20022;-93
2022/04/01 05:20:38;;;;;;;1.48;0.82;;;;;;;;;;6270306;22;20045;-93
2022/04/01 05:23:07;;;;;;;3.05;1.70;;;;;;;;;;6270538;22;20039;-93
2022/04/01 05:25:46;;;;;;;1.75;0.73;;;;;;;;;;6271674;22;20023;-92
2022/04/01 05:28:24;;;;;;;8.07;0.98;;;;;;;;;;6295995;22;20272;-93
2022/04/01 05:31:10;;;;;;;2.55;1.25;;;;;;;;;;6270737;22;20022;-93
2022/04/01 05:33:58;;;;;;;1.75;1.00;;;;;;;;;;6255103;22;20015;-92
2022/04/01 05:36:24;;;;;;;2.55;1.20;;;;;;;;;;6269867;22;20011;-92
2022/04/01 05:38:51;;;;;;;3.95;1.13;;;;;;;;;;6269992;22;20039;-91
2022/04/01 05:41:20;;;;;;;5.72;1.65;;;;;;;;;;6271015;22;20017;-92
2022/04/01 05:43:47;;;;;;;2.50;0.93;;;;;;;;;;6270592;22;20011;-92
2022/04/01 05:46:17;;;;;;;3.95;1.00;;;;;;;;;;6270932;22;20011;-92
2022/04/01 05:48:45;;;;;;;3.50;1.38;;;;;;;;;;6290366;22;20098;-93
2022/04/01 05:51:15;;;;;;;3.80;1.35;;;;;;;;;;6271766;22;20373;-92
2022/04/01 05:53:46;;;;;;;1.15;0.85;;;;;;;;;;6270760;22;20019;-93
2022/04/01 05:56:14;;;;;;;3.40;1.20;;;;;;;;;;6269848;22;20037;-92
2022/04/01 05:58:42;;;;;;;1.10;0.82;;;;;;;;;;6270245;22;20451;-93
2022/04/01 06:01:11;;;;;;;1.33;1.00;;;;;;;;;;6271757;22;20018;-92
2022/04/01 06:03:51;;;;;;;1.50;0.98;;;;;;;;;;6270930;22;20016;-93
2022/04/01 06:06:36;;;;;;;3.10;1.35;;;;;;;;;;6269422;22;20018;-93
2022/04/01 06:09:02;;;;;;;2.88;1.05;;;;;;;;;;6269917;22;20023;-92
2022/04/01 06:11:59;;;;;;;2.45;1.27;;;;;;;;;;6272678;22;20053;-94
2022/04/01 06:14:45;;;;;;;2.35;0.95;;;;;;;;;;6270247;22;20026;-93
2022/04/01 06:17:25;;;;;;;2.70;1.48;;;;;;;;;;6271813;22;20091;-94
2022/04/01 06:19:56;;;;;;;3.00;1.00;;;;;;;;;;6271024;22;20042;-91
2022/04/01 06:22:26;;;;;;;2.70;1.40;;;;;;;;;;6270138;22;20044;-92
2022/04/01 06:25:13;;;;;;;2.78;1.10;;;;;;;;;;6270528;22;20447;-92
2022/04/01 06:27:45;;;;;;;2.55;1.35;;;;;;;;;;6269626;22;20466;-91
2022/04/01 06:30:15;;;;;;;1.08;0.80;;;;;;;;;;6269221;22;20014;-92
2022/04/01 06:32:59;;;;;;;1.30;0.85;;;;;;;;;;6271019;22;20061;-92
2022/04/01 06:35:25;;;;;;;1.35;0.90;;;;;;;;;;6269742;22;20044;-93
2022/04/01 06:37:57;;;;;;;2.15;1.10;;;;;;;;;;6269242;22;20015;-92
2022/04/01 06:40:25;;;;;;;1.55;0.70;;;;;;;;;;6268120;22;20391;-93
2022/04/01 06:42:53;;;;;;;2.63;0.90;;;;;;;;;;6316373;22;20038;-93
2022/04/01 06:45:20;;;;;;;2.47;0.93;;;;;;;;;;6244885;22;20428;-92
2022/04/01 06:47:47;;;;;;;3.22;1.65;;;;;;;;;;6269844;22;20002;-92
2022/04/01 06:50:13;;;;;;;0.82;0.73;;;;;;;;;;6270528;22;20030;-92
2022/04/01 06:52:44;;;;;;;4.78;1.60;;;;;;;;;;6269825;22;20015;-93
2022/04/01 06:55:11;;;;;;;1.77;0.77;;;;;;;;;;6269111;22;20464;-93
2022/04/01 06:57:37;;;;;;;1.75;0.98;;;;;;;;;;6268675;22;20022;-94
2022/04/01 07:00:08;;;;;;;2.10;0.98;;;;;;;;;;6269414;22;20068;-90
2022/04/01 07:02:39;;;;;;;2.90;0.98;;;;;;;;;;6265402;22;20011;-93
2022/04/01 07:05:08;;;;;;;11.77;1.00;;;;;;;;;;6268143;22;20011;-91
2022/04/01 07:07:34;;;;;;;3.95;1.23;;;;;;;;;;6269510;22;20007;-92
2022/04/01 07:10:01;;;;;;;1.48;0.77;;;;;;;;;;6269134;22;20019;-92
2022/04/01 07:12:32;;;;;;;1.17;0.77;;;;;;;;;;6269383;22;20049;-92
2022/04/01 07:15:00;;;;;;;2.35;1.48;;;;;;;;;;6268084;22;20019;-92
2022/04/01 07:17:26;;;;;;;2.03;1.00;;;;;;;;;;6267014;22;20076;-93
2022/04/01 07:19:53;;;;;;;4.35;1.30;;;;;;;;;;6266317;22;20019;-92
2022/04/01 07:22:19;;;;;;;0.77;0.70;;;;;;;;;;6266518;22;20018;-92
2022/04/01 07:24:46;;;;;;;3.60;1.35;;;;;;;;;;6267206;22;20026;-92
2022/04/01 07:27:12;;;;;;;3.35;0.82;;;;;;;;;;6266763;22;20022;-91
2022/04/01 07:29:38;;;;;;;0.50;0.50;;;;;;;;;;6267215;22;20019;-92
2022/04/01 07:34:51;;;;;;;1.98;0.93;;;;;;;;;;6320247;22;20023;-92
2022/04/01 07:37:21;;;;;;;0.73;0.70;;;;;;;;;;6267625;22;20019;-91
2022/04/01 07:39:49;;;;;;;1.50;1.30;;;;;;;;;;6293062;22;20484;-90
2022/04/01 07:42:20;;;;;;;1.25;0.82;;;;;;;;;;6266572;22;20011;-91
2022/04/01 07:44:51;;;;;;;1.60;0.80;;;;;;;;;;6293475;22;20367;-90
2022/04/01 07:47:18;;;;;;;0.35;0.35;;;;;;;;;;6267112;22;20046;-92
2022/04/01 07:49:45;;;;;;;2.03;0.68;;;;;;;;;;6267454;22;20050;-92
2022/04/01 07:52:13;;;;;;;3.08;1.15;;;;;;;;;;6268456;22;20023;-92
2022/04/01 07:54:40;;;;;;;1.23;0.93;;;;;;;;;;6266877;22;20015;-92
2022/04/01 07:57:07;;;;;;;3.72;1.08;;;;;;;;;;6267124;22;20019;-92
2022/04/01 07:59:34;;;;;;;1.38;0.88;;;;;;;;;;6267185;22;20047;-91
2022/04/01 08:02:00;;;;;;;3.08;1.08;;;;;;;;;;6266737;22;20011;-92
2022/04/01 08:04:27;;;;;;;1.67;0.82;;;;;;;;;;6267362;22;20059;-92
2022/04/01 08:06:53;;;;;;;1.98;1.02;;;;;;;;;;6266785;22;20026;-93
2022/04/01 08:09:23;;;;;;;2.72;1.13;;;;;;;;;;6267584;22;20343;-92
2022/04/01 08:11:53;;;;;;;1.27;0.88;;;;;;;;;;6267384;22;20022;-93
2022/04/01 08:14:19;;;;;;;0.93;0.80;;;;;;;;;;6268613;22;20015;-93
2022/04/01 08:16:45;;;;;;;0.85;0.82;;;;;;;;;;6266974;22;20019;-92
2022/04/01 08:19:12;;;;;;;2.05;0.93;;;;;;;;;;6268106;22;20022;-93
2022/04/01 08:21:38;;;;;;;1.13;0.88;;;;;;;;;;6264635;22;20460;-86
2022/04/01 08:24:05;;;;;;;3.22;1.40;;;;;;;;;;6261600;22;20015;-90
2022/04/01 08:26:31;;;;;;;4.35;1.23;;;;;;;;;;6265347;22;20095;-92
2022/04/01 08:28:57;;;;;;;2.05;1.33;;;;;;;;;;6265328;22;20019;-92
2022/04/01 08:31:24;;;;;;;2.30;1.02;;;;;;;;;;6265230;22;20045;-92
2022/04/01 08:33:53;;;;;;;3.78;1.95;;;;;;;;;;6266527;22;20020;-93
2022/04/01 08:36:20;;;;;;;6.70;1.92;;;;;;;;;;6266019;22;20015;-92
2022/04/01 08:38:49;;;;;;;1.98;0.95;;;;;;;;;;6242522;22;20011;-93
2022/04/01 08:41:21;;;;;;;3.70;2.03;;;;;;;;;;6266631;22;20012;-91
2022/04/01 08:43:48;;;;;;;2.33;1.67;;;;;;;;;;6267371;22;20070;-92
2022/04/01 08:46:17;;;;;;;2.45;1.58;;;;;;;;;;6266662;22;20015;-92
2022/04/01 08:48:43;;;;;;;5.15;2.65;;;;;;;;;;6266356;22;20015;-92
2022/04/01 08:51:13;;;;;;;4.95;2.75;;;;;;;;;;6267487;22;20444;-93
2022/04/01 08:53:47;;;;;;;4.93;2.65;;;;;;;;;;6267980;22;20011;-92
2022/04/01 08:56:14;;;;;;;5.93;2.23;;;;;;;;;;6266984;22;20015;-92
2022/04/01 08:58:58;;;;;;;6.55;2.95;;;;;;;;;;6267803;22;20016;-92
2022/04/01 09:01:45;;;;;;;8.73;2.25;;;;;;;;;;6268677;22;20019;-92
2022/04/01 09:04:26;;;;;;;2.95;1.95;;;;;;;;;;6268539;22;20023;-92
2022/04/01 09:06:53;;;;;;;6.03;3.17;;;;;;;;;;6265349;22;20015;-91
2022/04/01 09:09:26;;;;;;;5.72;2.33;;;;;;;;;;6267678;22;20025;-90
2022/04/01 09:12:14;;;;;;;7.60;3.17;;;;;;;;;;6266879;22;20046;-91
2022/04/01 09:14:43;;;;;;;3.00;1.65;;;;;;;;;;6266390;22;20086;-91
2022/04/01 09:17:15;;;;;;;6.15;2.92;;;;;;;;;;6266111;22;20045;-91
2022/04/01 09:19:52;;;;;;;6.32;2.85;;;;;;;;;;6266846;22;20353;-91
2022/04/01 09:22:25;;;;;;;6.63;3.42;;;;;;;;;;6244683;22;20026;-91
2022/04/01 09:24:59;;;;;;;7.22;3.83;;;;;;;;;;6267673;22;20063;-91
2022/04/01 09:27:51;;;;;;;4.78;2.35;;;;;;;;;;6268403;22;20325;-92
2022/04/01 09:30:23;;;;;;;14.18;4.07;;;;;;;;;;6268272;22;20445;-91
2022/04/01 09:32:58;;;;;;;6.28;2.90;;;;;;;;;;6294427;22;20522;-91
2022/04/01 09:35:33;;;;;;;6.93;3.97;;;;;;;;;;6270135;22;20015;-91
2022/04/01 09:38:07;;;;;;;6.75;3.60;;;;;;;;;;6267900;22;20067;-90
2022/04/01 09:40:36;;;;;;;9.25;3.92;;;;;;;;;;6268473;22;20022;-90
2022/04/01 09:43:12;;;;;;;8.43;4.55;;;;;;;;;;6268167;22;20458;-91
2022/04/01 09:45:43;;;;;;;10.88;5.45;;;;;;;;;;6267916;22;20022;-91
2022/04/01 09:48:13;;;;;;;5.97;3.63;;;;;;;;;;6268764;22;20512;-91
2022/04/01 09:50:43;;;;;;;8.85;4.07;;;;;;;;;;6268569;22;20070;-91
2022/04/01 09:53:25;;;;;;;8.02;4.30;;;;;;;;;;6267914;22;20072;-91
2022/04/01 09:55:55;;;;;;;7.72;3.95;;;;;;;;;;6268898;22;20022;-90
2022/04/01 09:58:33;;;;;;;0.98;0.88;;;;;;;;;;6268726;22;20073;-91
2022/04/01 10:01:05;;;;;;;6.55;3.17;;;;;;;;;;6266671;22;20045;-91
2022/04/01 10:03:31;;;;;;;9.63;3.08;;;;;;;;;;6268115;22;20007;-91
2022/04/01 10:06:00;;;;;;;6.03;3.30;;;;;;;;;;6267778;22;20015;-90
2022/04/01 10:08:27;;;;;;;8.50;3.55;;;;;;;;;;6265946;22;20094;-91
2022/04/01 10:10:56;;;;;;;6.07;3.28;;;;;;;;;;6265469;22;20015;-91
2022/04/01 10:13:33;;;;;;;3.55;2.28;;;;;;;;;;6267202;22;20023;-91
2022/04/01 10:16:07;;;;;;;5.78;3.63;;;;;;;;;;6267220;22;20030;-91
2022/04/01 10:18:47;;;;;;;3.88;2.15;;;;;;;;;;6266506;22;20444;-91
2022/04/01 10:21:20;;;;;;;6.43;3.42;;;;;;;;;;6267569;22;20015;-91
2022/04/01 10:24:10;;;;;;;5.70;3.05;;;;;;;;;;6268624;22;20015;-92
2022/04/01 10:26:42;;;;;;;4.05;2.33;;;;;;;;;;6267732;22;20345;-89
2022/04/01 10:29:09;;;;;;;4.78;2.17;;;;;;;;;;6266142;22;20019;-90
2022/04/01 10:31:35;;;;;;;3.58;2.05;;;;;;;;;;6265628;22;20015;-91
2022/04/01 10:34:22;;;;;;;9.13;4.38;;;;;;;;;;6268341;22;20026;-90
2022/04/01 10:36:57;;;;;;;7.65;3.72;;;;;;;;;;6265580;22;20019;-90
2022/04/01 10:39:28;;;;;;;3.42;1.00;;;;;;;;;;6265911;22;20120;-91
2022/04/01 10:42:11;;;;;;;4.15;2.13;;;;;;;;;;6262586;22;20011;-91
2022/04/01 10:44:47;;;;;;;3.03;1.80;;;;;;;;;;6267234;22;20094;-91
2022/04/01 10:51:36;;;;;;;3.13;1.80;;;;;;;;;;6292157;22;20015;-91
2022/04/01 10:53:34;;;;;;;4.93;2.95;;;;;;;;;;6293737;22;20444;-90
2022/04/01 10:56:19;;;;;;;6.60;3.17;;;;;;;;;;6266428;22;20011;-90
2022/04/01 10:59:04;;;;;;;7.57;3.45;;;;;;;;;;6266332;22;20057;-91
2022/04/01 11:01:38;;;;;;;6.78;2.88;;;;;;;;;;6266099;22;20026;-91
2022/04/01 11:04:09;;;;;;;3.15;1.65;;;;;;;;;;6267040;22;20015;-91
2022/04/01 11:06:55;;;;;;;3.13;2.03;;;;;;;;;;6266398;22;20067;-92
2022/04/01 11:09:36;;;;;;;5.15;2.25;;;;;;;;;;6266446;22;20097;-91
2022/04/01 11:12:21;;;;;;;2.28;1.58;;;;;;;;;;6266664;22;20023;-92
2022/04/01 11:17:35;;;;;;;5.68;2.83;;;;;;;;;;6293774;22;20052;-92
2022/04/01 11:20:09;;;;;;;6.85;2.42;;;;;;;;;;6267416;22;20015;-92
2022/04/01 11:22:42;;;;;;;4.28;1.98;;;;;;;;;;6268678;22;20018;-93
2022/04/01 11:25:14;;;;;;;2.25;1.35;;;;;;;;;;6267181;22;20067;-92
2022/04/01 11:27:49;;;;;;;3.22;1.92;;;;;;;;;;6267665;22;20022;-92
2022/04/01 11:30:16;;;;;;;2.60;1.77;;;;;;;;;;6266825;22;20337;-91
2022/04/01 11:32:48;;;;;;;1.58;1.20;;;;;;;;;;6266554;22;20042;-91
2022/04/01 11:35:24;;;;;;;3.95;1.90;;;;;;;;;;6266334;22;20015;-91
2022/04/01 11:37:53;;;;;;;2.97;1.58;;;;;;;;;;6267785;22;20026;-92
2022/04/01 11:40:26;;;;;;;5.22;1.60;;;;;;;;;;6267745;22;20011;-92
2022/04/01 11:43:00;;;;;;;3.50;1.67;;;;;;;;;;6267578;22;20358;-92
2022/04/01 11:45:48;;;;;;;1.23;1.08;;;;;;;;;;6294870;22;20019;-92
2022/04/01 11:48:17;;;;;;;2.63;1.48;;;;;;;;;;6267952;22;20022;-92
2022/04/01 11:50:56;;;;;;;1.88;1.33;;;;;;;;;;6268718;22;20080;-93
2022/04/01 11:53:45;;;;;;;1.85;1.13;;;;;;;;;;6268658;22;20019;-92
2022/04/01 11:56:14;;;;;;;3.45;1.10;;;;;;;;;;6267578;22;20015;-92
2022/04/01 11:59:13;;;;;;;3.33;1.90;;;;;;;;;;6267085;22;20101;-92
2022/04/01 12:04:49;;;;;;;2.88;1.63;;;;;;;;;;6292341;22;20011;-93
2022/04/01 12:10:17;;;;;;;3.38;2.22;;;;;;;;;;6293342;22;20019;-92
2022/04/01 12:12:54;;;;;;;4.43;1.80;;;;;;;;;;6268590;22;20023;-92
2022/04/01 12:15:38;;;;;;;7.03;2.00;;;;;;;;;;6268633;22;20022;-92
2022/04/01 12:18:12;;;;;;;2.47;1.20;;;;;;;;;;6293960;22;20015;-92
2022/04/01 12:20:41;;;;;;;3.83;1.40;;;;;;;;;;6266293;22;20479;-91
2022/04/01 12:23:12;;;;;;;3.13;1.38;;;;;;;;;;6267702;22;20014;-91
2022/04/01 12:25:43;;;;;;;5.70;1.50;;;;;;;;;;6267981;22;20015;-91
2022/04/01 12:28:18;;;;;;;4.28;1.95;;;;;;;;;;6267488;22;20011;-92
2022/04/01 12:30:50;;;;;;;5.47;2.10;;;;;;;;;;6267571;22;20034;-92
2022/04/01 12:33:34;;;;;;;3.90;1.70;;;;;;;;;;6267495;22;20213;-92
2022/04/01 12:36:03;;;;;;;2.17;1.42;;;;;;;;;;6269139;22;20050;-92
2022/04/01 12:38:49;;;;;;;8.90;2.10;;;;;;;;;;6268841;22;20019;-92
2022/04/01 12:41:25;;;;;;;1.70;1.10;;;;;;;;;;6269431;22;20015;-92
2022/04/01 12:43:54;;;;;;;2.08;0.93;;;;;;;;;;6270363;22;20089;-92
2022/04/01 12:46:34;;;;;;;0.75;0.60;;;;;;;;;;6269848;22;20011;-92
2022/04/01 12:49:11;;;;;;;1.73;0.98;;;;;;;;;;6270013;22;20015;-92
2022/04/01 12:51:40;;;;;;;3.15;1.35;;;;;;;;;;6270347;22;20015;-92
2022/04/01 12:54:23;;;;;;;1.75;1.10;;;;;;;;;;6296202;22;20015;-92
2022/04/01 12:57:16;;;;;;;1.30;0.98;;;;;;;;;;6271869;22;20065;-92
2022/04/01 13:00:04;;;;;;;0.47;0.47;;;;;;;;;;6270880;22;20019;-92
2022/04/01 13:02:31;;;;;;;3.45;1.55;;;;;;;;;;6270073;22;20017;-92
2022/04/01 13:05:02;;;;;;;3.92;1.50;;;;;;;;;;6271306;22;20015;-93
2022/04/01 13:07:29;;;;;;;2.75;1.35;;;;;;;;;;6271127;22;20066;-92
2022/04/01 13:10:07;;;;;;;5.72;2.00;;;;;;;;;;6271054;22;20446;-93
2022/04/01 13:12:43;;;;;;;2.20;1.05;;;;;;;;;;6270701;22;20018;-93
2022/04/01 13:15:13;;;;;;;7.43;2.53;;;;;;;;;;6270128;22;20464;-91
2022/04/01 13:17:53;;;;;;;3.65;1.73;;;;;;;;;;6270088;22;20015;-92
2022/04/01 13:20:27;;;;;;;1.85;1.13;;;;;;;;;;6270069;22;20064;-92
2022/04/01 13:22:56;;;;;;;2.58;1.45;;;;;;;;;;6270557;22;20471;-92
2022/04/01 13:25:27;;;;;;;1.15;0.95;;;;;;;;;;6270880;22;20018;-91
2022/04/01 13:27:56;;;;;;;2.72;1.38;;;;;;;;;;6270416;22;20011;-92
2022/04/01 13:30:25;;;;;;;1.20;1.10;;;;;;;;;;6270523;22;20470;-93
2022/04/01 13:32:56;;;;;;;4.13;1.95;;;;;;;;;;6270054;22;20015;-92
2022/04/01 13:35:26;;;;;;;4.57;1.13;;;;;;;;;;6270342;22;20034;-91
2022/04/01 13:37:52;;;;;;;3.90;0.90;;;;;;;;;;6270273;22;20033;-91
2022/04/01 13:40:19;;;;;;;3.05;1.30;;;;;;;;;;6269848;22;20015;-92
2022/04/01 13:42:48;;;;;;;2.53;1.38;;;;;;;;;;6270439;22;20035;-92
2022/04/01 13:45:15;;;;;;;0.75;0.68;;;;;;;;;;6269406;22;20022;-92
2022/04/01 13:47:41;;;;;;;3.60;1.60;;;;;;;;;;6270058;22;20011;-92
2022/04/01 13:50:12;;;;;;;0.80;0.70;;;;;;;;;;6269996;22;20019;-92
2022/04/01 13:52:46;;;;;;;2.35;1.27;;;;;;;;;;6244109;22;20029;-92
2022/04/01 13:55:15;;;;;;;7.32;1.98;;;;;;;;;;6270751;22;20019;-91
2022/04/01 13:57:46;;;;;;;2.40;1.13;;;;;;;;;;6270182;22;20089;-92
2022/04/01 14:00:22;;;;;;;3.65;1.83;;;;;;;;;;6270116;22;20030;-92
2022/04/01 14:02:54;;;;;;;3.88;1.10;;;;;;;;;;6270890;22;20018;-93
2022/04/01 14:05:20;;;;;;;3.25;1.17;;;;;;;;;;6270166;22;20105;-92
2022/04/01 14:07:46;;;;;;;5.50;1.60;;;;;;;;;;6269342;22;20019;-92
2022/04/01 14:10:15;;;;;;;4.28;1.75;;;;;;;;;;6269406;22;20023;-93
2022/04/01 14:12:43;;;;;;;6.10;2.13;;;;;;;;;;6269138;22;20025;-91
2022/04/01 14:15:17;;;;;;;5.72;1.85;;;;;;;;;;6268977;22;20021;-92
2022/04/01 14:17:43;;;;;;;2.58;1.40;;;;;;;;;;6269620;22;20102;-92
2022/04/01 14:20:12;;;;;;;5.85;1.95;;;;;;;;;;6269479;22;20015;-92
2022/04/01 14:22:43;;;;;;;4.85;1.77;;;;;;;;;;6269122;22;20424;-93
2022/04/01 14:25:15;;;;;;;5.13;1.30;;;;;;;;;;6271243;22;20045;-92
2022/04/01 14:27:44;;;;;;;5.97;1.90;;;;;;;;;;6269522;22;20026;-92
2022/04/01 14:30:17;;;;;;;6.25;2.05;;;;;;;;;;6269595;22;20011;-93
2022/04/01 14:32:56;;;;;;;4.63;1.52;;;;;;;;;;6269316;22;20023;-92
2022/04/01 14:35:25;;;;;;;5.50;1.80;;;;;;;;;;6270976;22;20022;-92
2022/04/01 14:37:54;;;;;;;6.93;1.77;;;;;;;;;;6270522;22;20015;-93
2022/04/01 14:40:27;;;;;;;6.35;2.08;;;;;;;;;;6269415;22;20445;-91
2022/04/01 14:42:56;;;;;;;2.20;1.05;;;;;;;;;;6267339;22;20011;-92
2022/04/01 14:45:25;;;;;;;2.95;1.60;;;;;;;;;;6269251;22;20015;-92
2022/04/01 14:47:54;;;;;;;3.53;1.45;;;;;;;;;;6269092;22;20017;-92
2022/04/01 14:50:23;;;;;;;3.08;1.63;;;;;;;;;;6244452;22;20022;-92
2022/04/01 14:52:56;;;;;;;3.10;1.75;;;;;;;;;;6270202;22;20015;-93
2022/04/01 14:55:25;;;;;;;3.20;1.85;;;;;;;;;;6293923;22;20023;-91
2022/04/01 14:57:53;;;;;;;5.55;2.05;;;;;;;;;;6269062;22;20023;-93
2022/04/01 15:00:20;;;;;;;5.10;1.52;;;;;;;;;;6269089;22;20015;-92
2022/04/01 15:02:47;;;;;;;5.88;1.90;;;;;;;;;;6244013;22;20015;-92
2022/04/01 15:05:13;;;;;;;5.20;1.70;;;;;;;;;;6269362;22;20090;-92
2022/04/01 15:07:42;;;;;;;6.70;1.90;;;;;;;;;;6270104;22;20018;-92
2022/04/01 15:10:09;;;;;;;4.07;2.22;;;;;;;;;;6269023;22;20015;-92
2022/04/01 15:12:35;;;;;;;8.48;1.95;;;;;;;;;;6269570;22;20026;-91
2022/04/01 15:15:05;;;;;;;5.10;1.80;;;;;;;;;;6295605;22;20015;-91
2022/04/01 15:17:33;;;;;;;3.60;1.75;;;;;;;;;;6270014;22;20026;-93
2022/04/01 15:19:59;;;;;;;3.38;1.13;;;;;;;;;;6266699;22;20260;-85
2022/04/01 15:22:25;;;;;;;3.80;2.00;;;;;;;;;;6266563;22;20007;-90
2022/04/01 15:24:51;;;;;;;2.20;1.45;;;;;;;;;;6263913;22;20113;-89
2022/04/01 15:27:18;;;;;;;4.53;1.35;;;;;;;;;;6263795;22;20022;-89